createdAt,value
2023-03-29T00:00:47.719Z,68.8372
2023-03-29T00:01:48.544Z,69.3918
2023-03-29T00:02:49.604Z,70.5149
2023-03-29T00:03:50.603Z,71.6982
2023-03-29T00:04:51.358Z,72.2050
2023-03-29T00:05:52.150Z,73.8020
2023-03-29T00:06:52.960Z,74.7190
2023-03-29T00:07:53.759Z,75.3818
2023-03-29T00:08:54.556Z,75.8809
2023-03-29T00:09:55.349Z,75.9466
2023-03-29T00:10:56.180Z,75.7452
2023-03-29T00:11:57.021Z,75.6757
2023-03-29T00:12:57.838Z,77.0196
2023-03-29T00:13:58.631Z,72.9589
2023-03-29T00:14:59.419Z,72.7847
2023-03-29T00:16:00.196Z,74.0103
2023-03-29T00:17:01.425Z,73.0288
2023-03-29T00:18:02.326Z,71.9724
2023-03-29T00:20:03.870Z,72.1668
2023-03-29T00:22:05.795Z,72.2741
2023-03-29T00:23:06.598Z,71.5531
2023-03-29T00:24:07.430Z,71.6499
2023-03-29T00:25:08.216Z,71.3541
2023-03-29T00:26:09.025Z,70.7003
2023-03-29T00:27:09.839Z,70.7425
2023-03-29T00:28:10.640Z,72.8843
2023-03-29T00:29:11.471Z,73.2698
2023-03-29T00:30:12.283Z,70.3053
2023-03-29T00:31:13.236Z,71.7386
2023-03-29T00:32:14.037Z,68.9258
2023-03-29T00:33:14.928Z,68.6995
2023-03-29T00:34:15.736Z,65.9282
2023-03-29T00:35:16.579Z,63.8089
2023-03-29T00:36:17.406Z,66.9105
2023-03-29T00:37:18.248Z,68.4965
2023-03-29T00:38:19.057Z,67.3717
2023-03-29T00:39:19.841Z,67.5464
2023-03-29T00:40:20.666Z,65.6523
2023-03-29T00:41:21.471Z,67.9938
2023-03-29T00:42:22.305Z,68.2788
2023-03-29T00:43:23.138Z,66.8810
2023-03-29T00:44:23.943Z,64.2856
2023-03-29T00:45:24.751Z,64.6001
2023-03-29T00:46:25.686Z,63.7101
2023-03-29T00:47:26.683Z,64.9571
2023-03-29T00:48:27.449Z,66.2252
2023-03-29T00:49:28.243Z,65.6236
2023-03-29T00:51:29.795Z,67.0076
2023-03-29T00:52:30.559Z,67.4379
2023-03-29T00:53:31.364Z,68.4249
2023-03-29T00:54:32.168Z,68.3216
2023-03-29T00:55:32.958Z,66.4749
2023-03-29T00:56:33.753Z,66.5812
2023-03-29T00:57:34.525Z,64.9166
2023-03-29T00:58:35.361Z,64.4236
2023-03-29T00:59:36.162Z,63.8486
2023-03-29T01:00:36.968Z,66.1692
2023-03-29T01:01:37.765Z,66.3158
2023-03-29T01:02:38.835Z,63.7922
2023-03-29T01:03:39.936Z,62.1132
2023-03-29T01:04:40.775Z,62.4848
2023-03-29T01:05:41.623Z,62.5141
2023-03-29T01:06:42.493Z,62.4639
2023-03-29T01:07:43.313Z,63.1347
2023-03-29T01:08:44.105Z,64.7284
2023-03-29T01:10:45.623Z,63.3634
2023-03-29T01:11:46.391Z,63.8708
2023-03-29T01:12:47.233Z,64.5084
2023-03-29T01:13:48.021Z,64.7642
2023-03-29T01:14:49.064Z,65.5069
2023-03-29T01:15:49.847Z,65.4175
2023-03-29T01:16:50.722Z,65.2580
2023-03-29T01:17:51.592Z,66.4895
2023-03-29T01:18:52.353Z,65.5563
2023-03-29T01:19:53.135Z,65.8793
2023-03-29T01:20:53.926Z,63.4272
2023-03-29T01:21:54.757Z,63.5819
2023-03-29T01:22:55.573Z,63.5325
2023-03-29T01:23:56.403Z,61.9767
2023-03-29T01:24:57.184Z,62.8699
2023-03-29T01:25:58.070Z,63.7382
2023-03-29T01:26:58.850Z,64.2051
2023-03-29T01:27:59.719Z,63.9322
2023-03-29T01:29:00.503Z,63.6649
2023-03-29T01:30:01.413Z,64.3705
2023-03-29T01:31:02.844Z,64.7373
2023-03-29T01:32:04.220Z,63.3810
2023-03-29T01:33:05.100Z,62.6097
2023-03-29T01:34:05.920Z,61.7486
2023-03-29T01:36:07.473Z,63.7048
2023-03-29T01:38:09.010Z,63.6456
2023-03-29T01:39:09.796Z,64.7627
2023-03-29T01:40:10.607Z,64.8547
2023-03-29T01:41:11.426Z,62.4317
2023-03-29T01:42:12.240Z,62.7487
2023-03-29T01:43:13.391Z,63.2243
2023-03-29T01:44:14.567Z,65.3524
2023-03-29T01:45:15.650Z,64.3970
2023-03-29T01:46:16.511Z,64.6352
2023-03-29T01:47:17.377Z,64.5857
2023-03-29T01:48:18.190Z,64.3220
2023-03-29T01:49:19.001Z,64.4090
2023-03-29T01:50:19.834Z,64.3498
2023-03-29T01:51:20.667Z,65.9739
2023-03-29T01:52:21.488Z,65.7908
2023-03-29T01:53:22.364Z,66.2026
2023-03-29T01:54:23.174Z,66.0813
2023-03-29T01:55:23.998Z,66.4816
2023-03-29T01:56:24.790Z,66.1754
2023-03-29T01:57:25.795Z,65.4433
2023-03-29T01:59:27.283Z,65.9506
2023-03-29T02:00:28.093Z,66.7088
2023-03-29T02:01:29.095Z,64.8295
2023-03-29T02:02:30.102Z,66.1780
2023-03-29T02:03:31.456Z,67.0993
2023-03-29T02:04:32.430Z,67.9616
2023-03-29T02:05:33.230Z,66.7197
2023-03-29T02:06:34.006Z,65.6874
2023-03-29T02:07:34.821Z,67.0861
2023-03-29T02:08:35.709Z,66.4634
2023-03-29T02:09:36.513Z,64.8047
2023-03-29T02:10:37.286Z,64.9627
2023-03-29T02:11:38.129Z,65.3999
2023-03-29T02:12:38.921Z,67.5895
2023-03-29T02:13:39.780Z,65.7709
2023-03-29T02:14:40.729Z,65.0855
2023-03-29T02:15:41.589Z,65.7081
2023-03-29T02:16:42.468Z,67.1814
2023-03-29T02:17:43.339Z,68.0609
2023-03-29T02:18:44.217Z,67.6252
2023-03-29T02:20:45.722Z,67.0464
2023-03-29T02:21:46.525Z,70.0980
2023-03-29T02:22:47.361Z,69.8192
2023-03-29T02:23:48.180Z,70.7951
2023-03-29T02:24:49.017Z,68.9877
2023-03-29T02:25:49.873Z,66.1630
2023-03-29T02:26:50.819Z,64.4489
2023-03-29T02:27:51.619Z,65.5713
2023-03-29T02:28:52.444Z,66.4547
2023-03-29T02:29:53.288Z,68.2164
2023-03-29T02:30:54.143Z,66.9387
2023-03-29T02:31:54.933Z,67.4317
2023-03-29T02:32:55.861Z,66.4402
2023-03-29T02:33:56.697Z,66.4948
2023-03-29T02:35:58.302Z,67.4580
2023-03-29T02:37:59.758Z,67.6850
2023-03-29T02:39:00.607Z,67.2321
2023-03-29T02:40:01.457Z,66.2092
2023-03-29T02:41:02.841Z,65.8881
2023-03-29T02:42:03.886Z,64.7560
2023-03-29T02:43:04.690Z,65.3263
2023-03-29T02:44:05.510Z,68.2958
2023-03-29T02:45:06.316Z,70.7663
2023-03-29T02:46:07.196Z,71.7560
2023-03-29T02:47:08.020Z,68.8145
2023-03-29T02:48:08.921Z,66.4525
2023-03-29T02:49:09.771Z,67.7885
2023-03-29T02:50:10.619Z,69.1052
2023-03-29T02:51:11.438Z,66.7295
2023-03-29T02:52:12.280Z,67.7220
2023-03-29T02:53:13.113Z,66.8583
2023-03-29T02:54:13.921Z,66.1515
2023-03-29T02:55:14.711Z,64.6980
2023-03-29T02:56:15.516Z,67.8314
2023-03-29T02:57:16.566Z,70.5677
2023-03-29T02:58:17.362Z,70.0260
2023-03-29T02:59:18.181Z,69.9003
2023-03-29T03:00:19.005Z,70.8226
2023-03-29T03:01:19.852Z,69.1675
2023-03-29T03:02:20.832Z,71.2802
2023-03-29T03:03:21.798Z,71.5485
2023-03-29T03:04:22.608Z,69.0611
2023-03-29T03:05:23.446Z,67.4621
2023-03-29T03:06:25.329Z,68.0878
2023-03-29T03:07:26.165Z,66.6875
2023-03-29T03:08:26.958Z,66.4917
2023-03-29T03:09:27.838Z,65.2293
2023-03-29T03:10:28.674Z,66.3845
2023-03-29T03:11:29.436Z,67.4562
2023-03-29T03:13:31.000Z,66.1895
2023-03-29T03:15:32.516Z,67.0410
2023-03-29T03:17:34.121Z,69.1249
2023-03-29T03:18:34.934Z,68.8885
2023-03-29T03:19:35.756Z,66.9864
2023-03-29T03:20:36.594Z,68.3159
2023-03-29T03:21:37.386Z,66.8345
2023-03-29T03:22:38.182Z,68.0924
2023-03-29T03:24:39.715Z,69.1654
2023-03-29T03:25:40.521Z,68.2198
2023-03-29T03:26:41.379Z,68.1384
2023-03-29T03:27:42.188Z,68.7396
2023-03-29T03:28:42.993Z,68.4180
2023-03-29T03:29:43.886Z,68.3074
2023-03-29T03:30:44.999Z,66.8658
2023-03-29T03:31:45.824Z,62.4780
2023-03-29T03:32:46.699Z,62.8467
2023-03-29T03:33:47.514Z,66.0537
2023-03-29T03:34:48.370Z,65.9604
2023-03-29T03:35:49.235Z,66.0891
2023-03-29T03:36:50.029Z,65.5711
2023-03-29T03:37:50.871Z,67.8225
2023-03-29T03:38:51.715Z,69.3054
2023-03-29T03:39:52.443Z,67.5524
2023-03-29T03:40:53.349Z,66.6612
2023-03-29T03:41:54.188Z,65.9887
2023-03-29T03:42:55.129Z,66.5786
2023-03-29T03:43:56.262Z,67.7984
2023-03-29T03:44:57.308Z,67.6151
2023-03-29T03:45:58.337Z,66.5235
2023-03-29T03:46:59.124Z,67.4869
2023-03-29T03:48:00.014Z,66.6484
2023-03-29T03:49:00.820Z,69.6303
2023-03-29T03:50:01.658Z,70.1132
2023-03-29T03:51:03.063Z,70.1498
2023-03-29T03:52:04.017Z,69.5359
2023-03-29T03:53:04.757Z,69.6852
2023-03-29T03:54:05.625Z,68.3045
2023-03-29T03:55:06.362Z,71.1283
2023-03-29T03:57:08.047Z,69.1582
2023-03-29T03:58:08.798Z,68.7644
2023-03-29T03:59:09.596Z,69.9756
2023-03-29T04:00:10.417Z,70.6244
2023-03-29T04:01:11.173Z,67.5813
2023-03-29T04:02:11.988Z,66.6675
2023-03-29T04:03:13.025Z,66.9540
2023-03-29T04:05:14.838Z,68.9425
2023-03-29T04:06:15.647Z,70.2012
2023-03-29T04:07:16.432Z,67.4525
2023-03-29T04:09:18.037Z,69.1915
2023-03-29T04:10:18.865Z,70.2337
2023-03-29T04:11:19.710Z,70.9845
2023-03-29T04:12:20.517Z,70.4150
2023-03-29T04:13:21.378Z,65.6107
2023-03-29T04:14:22.174Z,65.1498
2023-03-29T04:16:23.802Z,67.2722
2023-03-29T04:17:24.792Z,68.0749
2023-03-29T04:18:25.892Z,64.6942
2023-03-29T04:19:26.747Z,67.0143
2023-03-29T04:20:27.520Z,66.5989
2023-03-29T04:21:28.362Z,66.3143
2023-03-29T04:22:29.156Z,67.0669
2023-03-29T04:23:29.985Z,65.4962
2023-03-29T04:24:30.817Z,65.0919
2023-03-29T04:25:31.617Z,66.1580
2023-03-29T04:26:32.377Z,65.4917
2023-03-29T04:27:33.228Z,65.7226
2023-03-29T04:28:34.017Z,61.2864
2023-03-29T04:29:34.822Z,63.0232
2023-03-29T04:30:35.635Z,63.1400
2023-03-29T04:31:36.534Z,63.2367
2023-03-29T04:33:38.036Z,63.8996
2023-03-29T04:35:39.552Z,63.5368
2023-03-29T04:36:40.315Z,64.6009
2023-03-29T04:37:42.121Z,65.9501
2023-03-29T04:38:48.104Z,66.8880
2023-03-29T04:39:44.688Z,66.6577
2023-03-29T04:41:46.215Z,66.6182
2023-03-29T04:42:47.005Z,66.2813
2023-03-29T04:43:47.810Z,64.6390
2023-03-29T04:44:48.680Z,64.4895
2023-03-29T04:45:49.554Z,65.4934
2023-03-29T04:46:50.568Z,63.2821
2023-03-29T04:47:51.424Z,65.3773
2023-03-29T04:48:52.202Z,66.2182
2023-03-29T04:49:53.062Z,66.9887
2023-03-29T04:50:53.906Z,65.9641
2023-03-29T04:51:54.753Z,63.6115
2023-03-29T04:52:55.554Z,60.7721
2023-03-29T04:53:56.322Z,60.0834
2023-03-29T04:54:57.113Z,59.5092
2023-03-29T04:55:57.919Z,57.8502
2023-03-29T04:56:58.780Z,57.0253
2023-03-29T04:57:59.561Z,56.8619
2023-03-29T04:59:00.406Z,58.1039
2023-03-29T05:00:01.215Z,57.8971
2023-03-29T05:01:03.026Z,56.7693
2023-03-29T05:02:04.235Z,57.2379
2023-03-29T05:03:05.142Z,58.1578
2023-03-29T05:05:06.756Z,57.8867
2023-03-29T05:06:07.956Z,57.6390
2023-03-29T05:07:08.776Z,57.7793
2023-03-29T05:09:10.371Z,58.3450
2023-03-29T05:10:11.257Z,57.8478
2023-03-29T05:11:12.124Z,56.8566
2023-03-29T05:12:12.957Z,56.1989
2023-03-29T05:13:13.766Z,56.5490
2023-03-29T05:14:14.534Z,56.1718
2023-03-29T05:15:15.459Z,57.1212
2023-03-29T05:16:16.322Z,58.5967
2023-03-29T05:18:18.295Z,57.6183
2023-03-29T05:19:19.328Z,56.7962
2023-03-29T05:21:20.943Z,57.4484
2023-03-29T05:22:21.812Z,57.9995
2023-03-29T05:23:22.661Z,57.4052
2023-03-29T05:24:23.541Z,58.6679
2023-03-29T05:25:24.283Z,58.5271
2023-03-29T05:26:25.085Z,59.1702
2023-03-29T05:27:25.878Z,59.7187
2023-03-29T05:28:26.653Z,60.0684
2023-03-29T05:29:27.446Z,59.2411
2023-03-29T05:30:28.236Z,59.2628
2023-03-29T05:32:29.861Z,58.1052
2023-03-29T05:34:31.410Z,58.1777
2023-03-29T05:35:32.317Z,56.9265
2023-03-29T05:36:33.132Z,57.2309
2023-03-29T05:37:33.884Z,59.3397
2023-03-29T05:38:34.670Z,61.7131
2023-03-29T05:39:37.982Z,61.0585
2023-03-29T05:40:36.647Z,60.3301
2023-03-29T05:41:37.447Z,58.7985
2023-03-29T05:42:38.246Z,58.1305
2023-03-29T05:43:38.978Z,58.8121
2023-03-29T05:44:39.735Z,58.0448
2023-03-29T05:45:40.950Z,58.0918
2023-03-29T05:46:41.702Z,59.0273
2023-03-29T05:47:42.567Z,59.5755
2023-03-29T05:49:44.053Z,60.0046
2023-03-29T05:50:46.727Z,59.4564
2023-03-29T05:51:45.350Z,58.7655
2023-03-29T05:53:47.069Z,59.7015
2023-03-29T05:55:49.703Z,61.0578
2023-03-29T05:56:50.582Z,60.7895
2023-03-29T05:57:51.400Z,60.0958
2023-03-29T05:58:55.313Z,60.9305
2023-03-29T06:03:56.784Z,61.2956
2023-03-29T06:04:57.774Z,61.7817
2023-03-29T06:05:58.528Z,61.2697
2023-03-29T06:06:59.424Z,61.0551
2023-03-29T06:08:00.473Z,62.5804
2023-03-29T06:09:01.339Z,61.7876
2023-03-29T06:10:02.094Z,63.3349
2023-03-29T06:11:05.538Z,61.5236
2023-03-29T06:12:04.534Z,60.3256
2023-03-29T06:13:05.404Z,60.3939
2023-03-29T06:14:06.230Z,60.9757
2023-03-29T06:15:06.998Z,58.5122
2023-03-29T06:16:07.815Z,59.8938
2023-03-29T06:17:08.712Z,60.5193
2023-03-29T06:18:09.515Z,61.1516
2023-03-29T06:19:10.266Z,60.9489
2023-03-29T06:20:11.069Z,59.5072
2023-03-29T06:21:12.967Z,58.5982
2023-03-29T06:23:16.106Z,58.4313
2023-03-29T06:24:16.963Z,57.3205
2023-03-29T06:25:17.919Z,58.3666
2023-03-29T06:26:18.715Z,58.5531
2023-03-29T06:27:19.478Z,59.9479
2023-03-29T06:28:20.235Z,57.5273
2023-03-29T06:29:21.045Z,59.1586
2023-03-29T06:30:21.794Z,58.9319
2023-03-29T06:31:22.685Z,59.7212
2023-03-29T06:32:23.611Z,59.0315
2023-03-29T06:33:24.416Z,60.3397
2023-03-29T06:34:25.227Z,60.2356
2023-03-29T06:35:26.002Z,57.5417
2023-03-29T06:37:27.729Z,58.6861
2023-03-29T06:38:28.778Z,58.1235
2023-03-29T06:39:29.519Z,57.5478
2023-03-29T06:40:30.287Z,58.5930
2023-03-29T06:41:31.155Z,58.4094
2023-03-29T06:42:31.934Z,57.3436
2023-03-29T06:43:32.709Z,58.1730
2023-03-29T06:44:33.850Z,57.6391
2023-03-29T06:45:34.865Z,56.9381
2023-03-29T06:46:35.718Z,55.7983
2023-03-29T06:47:36.556Z,57.0340
2023-03-29T06:48:37.375Z,56.6603
2023-03-29T06:49:38.189Z,57.0170
2023-03-29T06:50:38.953Z,56.8531
2023-03-29T06:51:39.733Z,56.0355
2023-03-29T06:52:40.557Z,55.8310
2023-03-29T06:53:41.342Z,57.2302
2023-03-29T06:55:42.764Z,57.1054
2023-03-29T06:57:44.274Z,57.8031
2023-03-29T06:58:45.103Z,57.3741
2023-03-29T06:59:45.907Z,56.2068
2023-03-29T07:01:47.504Z,55.5305
2023-03-29T07:02:48.252Z,56.2856
2023-03-29T07:03:49.088Z,56.3539
2023-03-29T07:04:49.939Z,55.7119
2023-03-29T07:05:50.671Z,55.9591
2023-03-29T07:07:52.101Z,57.4795
2023-03-29T07:08:52.936Z,58.4258
2023-03-29T07:09:53.741Z,58.4523
2023-03-29T07:11:56.196Z,65.4700
2023-03-29T07:12:56.969Z,66.4033
2023-03-29T07:13:57.755Z,64.2513
2023-03-29T07:14:58.557Z,65.0878
2023-03-29T07:15:59.465Z,67.5573
2023-03-29T07:17:00.277Z,67.9097
2023-03-29T07:18:01.159Z,68.4155
2023-03-29T07:19:01.912Z,69.3625
2023-03-29T07:21:03.557Z,69.8833
2023-03-29T07:22:04.378Z,68.4013
2023-03-29T07:23:05.159Z,69.5865
2023-03-29T07:24:05.928Z,68.7372
2023-03-29T07:26:07.443Z,67.5476
2023-03-29T07:27:08.205Z,69.0514
2023-03-29T07:28:08.969Z,68.0231
2023-03-29T07:29:09.746Z,68.2426
2023-03-29T07:30:10.529Z,67.4321
2023-03-29T07:31:11.677Z,68.1585
2023-03-29T07:33:13.852Z,68.5267
2023-03-29T07:34:14.644Z,66.4477
2023-03-29T07:35:15.427Z,68.5228
2023-03-29T07:36:16.267Z,68.4143
2023-03-29T07:37:17.121Z,68.4175
2023-03-29T07:38:17.896Z,68.6163
2023-03-29T07:39:18.724Z,68.4677
2023-03-29T07:40:19.512Z,67.9111
2023-03-29T07:41:20.282Z,69.4319
2023-03-29T07:42:21.072Z,68.6293
2023-03-29T07:43:21.860Z,68.2420
2023-03-29T07:44:22.642Z,60.4139
2023-03-29T07:45:29.356Z,66.4130
2023-03-29T07:51:29.214Z,66.6804
2023-03-29T07:53:31.820Z,66.5389
2023-03-29T07:54:32.607Z,67.3997
2023-03-29T07:55:33.406Z,65.6818
2023-03-29T07:56:34.203Z,63.0271
2023-03-29T07:57:34.956Z,62.6208
2023-03-29T07:58:35.774Z,63.4476
2023-03-29T07:59:36.515Z,62.7313
2023-03-29T08:00:37.300Z,61.0370
2023-03-29T08:01:38.049Z,60.9699
2023-03-29T08:02:38.810Z,62.5278
2023-03-29T08:03:39.646Z,63.8882
2023-03-29T08:04:40.445Z,63.5851
2023-03-29T08:05:42.606Z,64.4826
2023-03-29T08:08:42.639Z,65.2538
2023-03-29T08:09:43.458Z,62.8271
2023-03-29T08:10:44.196Z,63.7360
2023-03-29T08:11:44.940Z,62.9731
2023-03-29T08:12:45.727Z,61.3208
2023-03-29T08:13:46.466Z,62.4463
2023-03-29T08:14:47.227Z,64.3580
2023-03-29T08:15:48.036Z,66.5383
2023-03-29T08:16:48.859Z,64.0930
2023-03-29T08:17:49.664Z,63.1315
2023-03-29T08:18:50.516Z,64.7675
2023-03-29T08:19:52.743Z,66.0694
2023-03-29T08:21:52.054Z,65.5806
2023-03-29T08:23:53.459Z,65.7056
2023-03-29T08:24:54.239Z,65.8492
2023-03-29T08:25:55.060Z,65.4300
2023-03-29T08:26:55.893Z,65.6468
2023-03-29T08:27:56.807Z,66.4433
2023-03-29T08:28:57.581Z,66.3553
2023-03-29T08:29:58.336Z,65.2880
2023-03-29T08:30:59.216Z,66.3702
2023-03-29T08:31:59.954Z,64.8566
2023-03-29T08:33:00.829Z,64.9785
2023-03-29T08:34:01.602Z,63.3353
2023-03-29T08:35:02.386Z,65.3410
2023-03-29T08:36:03.211Z,64.1194
2023-03-29T08:37:03.968Z,62.8294
2023-03-29T08:38:04.778Z,63.9213
2023-03-29T08:39:05.550Z,62.6633
2023-03-29T08:41:07.000Z,62.9530
2023-03-29T08:42:07.824Z,62.3202
2023-03-29T08:43:08.622Z,62.8719
2023-03-29T08:44:09.387Z,61.8988
2023-03-29T08:45:10.143Z,61.5958
2023-03-29T08:46:10.930Z,61.0010
2023-03-29T08:47:11.701Z,60.4635
2023-03-29T08:48:12.489Z,61.8034
2023-03-29T08:49:13.290Z,61.8053
2023-03-29T08:50:14.103Z,62.8279
2023-03-29T08:51:14.849Z,59.6360
2023-03-29T08:52:15.640Z,61.8691
2023-03-29T08:53:16.429Z,63.1413
2023-03-29T08:54:17.219Z,61.8563
2023-03-29T08:55:17.993Z,59.5222
2023-03-29T08:56:18.760Z,59.3201
2023-03-29T08:57:19.699Z,60.3720
2023-03-29T08:58:20.511Z,58.3070
2023-03-29T08:59:21.301Z,60.4410
2023-03-29T09:00:22.043Z,59.8535
2023-03-29T09:01:22.996Z,59.2065
2023-03-29T09:02:24.357Z,59.0538
2023-03-29T09:03:25.321Z,59.4658
2023-03-29T09:04:26.183Z,58.2946
2023-03-29T09:05:26.986Z,56.7474
2023-03-29T09:06:27.884Z,57.0347
2023-03-29T09:08:29.365Z,58.3889
2023-03-29T09:10:30.918Z,57.5593
2023-03-29T09:12:32.319Z,57.2536
2023-03-29T09:13:33.239Z,57.6553
2023-03-29T09:14:33.982Z,58.8759
2023-03-29T09:15:34.783Z,58.0579
2023-03-29T09:16:35.686Z,58.0153
2023-03-29T09:17:36.477Z,59.5222
2023-03-29T09:18:37.331Z,59.8307
2023-03-29T09:19:38.194Z,59.2649
2023-03-29T09:20:39.005Z,60.3237
2023-03-29T09:21:39.786Z,62.2570
2023-03-29T09:22:40.552Z,62.2699
2023-03-29T09:23:41.373Z,60.1302
2023-03-29T09:29:47.044Z,59.9865
2023-03-29T09:30:47.833Z,59.2948
2023-03-29T09:31:48.727Z,59.0936
2023-03-29T09:32:49.537Z,59.2975
2023-03-29T09:33:50.272Z,59.6244
2023-03-29T09:34:51.044Z,60.8084
2023-03-29T09:35:51.926Z,59.7592
2023-03-29T09:36:52.832Z,60.9448
2023-03-29T09:37:53.589Z,60.6033
2023-03-29T09:38:54.600Z,60.3514
2023-03-29T09:39:55.349Z,61.3644
2023-03-29T09:40:56.202Z,61.8160
2023-03-29T09:41:56.953Z,61.2915
2023-03-29T09:42:57.707Z,60.7487
2023-03-29T09:43:58.541Z,60.5710
2023-03-29T09:44:59.332Z,60.2349
2023-03-29T09:46:00.321Z,61.2599
2023-03-29T09:47:01.120Z,60.5898
2023-03-29T09:48:01.928Z,61.3861
2023-03-29T09:49:02.688Z,57.3745
2023-03-29T09:50:03.482Z,59.9850
2023-03-29T09:51:05.067Z,58.7137
2023-03-29T09:52:05.887Z,59.8096
2023-03-29T09:53:06.668Z,59.1837
2023-03-29T09:54:07.460Z,59.3237
2023-03-29T09:56:09.111Z,58.5353
2023-03-29T09:57:10.073Z,58.8305
2023-03-29T09:58:10.878Z,60.4485
2023-03-29T09:59:11.680Z,60.7884
2023-03-29T10:00:12.481Z,61.1510
2023-03-29T10:01:13.289Z,59.7394
2023-03-29T10:02:14.011Z,59.1344
2023-03-29T10:03:14.840Z,58.2296
2023-03-29T10:04:15.636Z,60.9007
2023-03-29T10:05:16.392Z,61.0252
2023-03-29T10:06:17.181Z,59.8615
2023-03-29T10:07:17.955Z,59.9694
2023-03-29T10:19:27.322Z,57.7860
2023-03-29T10:20:28.096Z,58.5563
2023-03-29T10:21:28.853Z,58.0481
2023-03-29T10:22:29.651Z,58.6899
2023-03-29T10:23:30.426Z,57.0168
2023-03-29T10:24:31.162Z,56.2826
2023-03-29T10:25:31.922Z,57.3001
2023-03-29T10:26:32.730Z,59.4983
2023-03-29T10:27:33.488Z,57.8978
2023-03-29T10:28:34.265Z,58.7363
2023-03-29T10:29:35.065Z,57.6414
2023-03-29T10:30:35.885Z,56.4535
2023-03-29T10:31:36.695Z,56.4072
2023-03-29T10:33:38.144Z,57.1340
2023-03-29T10:34:38.987Z,56.1704
2023-03-29T10:35:39.778Z,55.2700
2023-03-29T10:36:40.568Z,55.7574
2023-03-29T10:37:41.341Z,56.3671
2023-03-29T10:38:42.100Z,54.0722
2023-03-29T10:39:42.879Z,52.0448
2023-03-29T10:40:43.666Z,53.9612
2023-03-29T10:41:44.467Z,53.8846
2023-03-29T10:42:45.255Z,52.1075
2023-03-29T10:43:46.280Z,52.4090
2023-03-29T10:45:47.747Z,53.7264
2023-03-29T10:46:48.479Z,55.3997
2023-03-29T10:48:49.982Z,55.1118
2023-03-29T10:50:51.971Z,53.6940
2023-03-29T10:51:52.719Z,49.8397
2023-03-29T10:52:53.456Z,51.4806
2023-03-29T10:53:54.293Z,51.7540
2023-03-29T10:54:55.088Z,52.7271
2023-03-29T10:55:55.879Z,57.9690
2023-03-29T10:56:56.793Z,55.7604
2023-03-29T10:57:57.548Z,55.5927
2023-03-29T10:58:58.324Z,57.9481
2023-03-29T10:59:59.085Z,56.7754
2023-03-29T11:01:00.299Z,58.4166
2023-03-29T11:02:01.326Z,58.1095
2023-03-29T11:03:02.198Z,60.0882
2023-03-29T11:04:03.192Z,59.6869
2023-03-29T11:05:04.058Z,61.0818
2023-03-29T11:06:04.861Z,58.7644
2023-03-29T11:07:05.676Z,58.7276
2023-03-29T11:08:06.454Z,57.0000
2023-03-29T11:09:07.279Z,55.7308
2023-03-29T11:10:08.100Z,57.0764
2023-03-29T11:11:08.859Z,54.7713
2023-03-29T11:12:16.542Z,54.3080
2023-03-29T11:13:10.645Z,54.6641
2023-03-29T11:15:12.086Z,51.1008
2023-03-29T11:16:12.906Z,51.7331
2023-03-29T11:17:13.705Z,51.8223
2023-03-29T11:18:14.468Z,50.0619
2023-03-29T11:19:15.238Z,51.1459
2023-03-29T11:20:16.058Z,50.4697
2023-03-29T11:21:16.852Z,51.2374
2023-03-29T11:22:17.663Z,50.4040
2023-03-29T11:23:18.465Z,50.0342
2023-03-29T11:24:19.285Z,50.2744
2023-03-29T11:25:20.105Z,50.4374
2023-03-29T11:26:20.882Z,51.0609
2023-03-29T11:27:21.705Z,50.5334
2023-03-29T11:29:23.216Z,46.3158
2023-03-29T11:31:24.999Z,49.2560
2023-03-29T11:32:25.946Z,45.4169
2023-03-29T11:33:26.689Z,45.2846
2023-03-29T11:34:27.486Z,46.0301
2023-03-29T11:35:28.276Z,45.7977
2023-03-29T11:36:29.089Z,45.8516
2023-03-29T11:37:29.829Z,42.7692
2023-03-29T11:38:30.625Z,44.8110
2023-03-29T11:39:32.438Z,46.5703
2023-03-29T11:40:33.370Z,45.4019
2023-03-29T11:41:34.179Z,44.8258
2023-03-29T11:42:34.984Z,44.8363
2023-03-29T11:43:35.783Z,44.2861
2023-03-29T11:44:36.626Z,43.4028
2023-03-29T11:45:37.440Z,43.5896
2023-03-29T11:46:38.380Z,45.3795
2023-03-29T11:47:39.156Z,47.0111
2023-03-29T11:48:39.938Z,47.7416
2023-03-29T11:49:40.725Z,46.9704
2023-03-29T11:50:41.536Z,48.4130
2023-03-29T11:51:42.337Z,45.8877
2023-03-29T11:53:43.841Z,47.0425
2023-03-29T11:54:44.791Z,47.5935
2023-03-29T11:55:45.570Z,47.1814
2023-03-29T11:56:46.431Z,49.6389
2023-03-29T11:57:47.187Z,49.7428
2023-03-29T11:58:48.002Z,48.9953
2023-03-29T11:59:48.805Z,50.1385
2023-03-29T12:00:49.566Z,49.9869
2023-03-29T12:01:50.407Z,50.0415
2023-03-29T12:02:51.355Z,50.8720
2023-03-29T12:03:52.372Z,52.0272
2023-03-29T12:04:53.208Z,50.1251
2023-03-29T12:05:54.003Z,50.9416
2023-03-29T12:06:54.835Z,49.8001
2023-03-29T12:07:55.646Z,50.2831
2023-03-29T12:08:56.404Z,50.4441
2023-03-29T12:09:57.202Z,50.6053
2023-03-29T12:10:57.991Z,52.9636
2023-03-29T12:11:58.852Z,51.7333
2023-03-29T12:12:59.638Z,52.2380
2023-03-29T12:14:00.424Z,52.3514
2023-03-29T12:15:01.259Z,51.7192
2023-03-29T12:16:02.122Z,52.5571
2023-03-29T12:17:03.183Z,52.4743
2023-03-29T12:19:05.039Z,54.1283
2023-03-29T12:20:05.833Z,53.3603
2023-03-29T12:23:08.208Z,52.6651
2023-03-29T12:24:09.104Z,53.6148
2023-03-29T12:25:10.662Z,53.2845
2023-03-29T12:26:11.456Z,55.0807
2023-03-29T12:27:12.231Z,56.4867
2023-03-29T12:28:13.025Z,55.8275
2023-03-29T12:30:14.558Z,56.0797
2023-03-29T12:31:15.363Z,56.7265
2023-03-29T12:32:16.382Z,55.9232
2023-03-29T12:33:17.280Z,54.3244
2023-03-29T12:34:18.121Z,54.1440
2023-03-29T12:35:18.919Z,52.6765
2023-03-29T12:36:19.685Z,53.7635
2023-03-29T12:37:20.512Z,53.3471
2023-03-29T12:39:21.973Z,54.7902
2023-03-29T12:40:22.800Z,54.7971
2023-03-29T12:41:23.579Z,54.6272
2023-03-29T12:42:24.357Z,52.1986
2023-03-29T12:43:25.124Z,52.7092
2023-03-29T12:44:25.949Z,53.5102
2023-03-29T12:45:26.802Z,54.4987
2023-03-29T12:46:27.830Z,53.1204
2023-03-29T12:47:28.706Z,53.9059
2023-03-29T12:49:30.173Z,52.1277
2023-03-29T12:50:30.931Z,48.8305
2023-03-29T12:51:31.721Z,49.7531
2023-03-29T12:52:32.522Z,52.3911
2023-03-29T12:53:33.302Z,52.5147
2023-03-29T12:54:34.126Z,50.8305
2023-03-29T12:55:34.901Z,53.1913
2023-03-29T12:56:35.680Z,53.2494
2023-03-29T12:57:36.464Z,54.2406
2023-03-29T12:59:38.038Z,57.1283
2023-03-29T13:00:39.038Z,54.2566
2023-03-29T13:01:40.079Z,55.9288
2023-03-29T13:02:41.726Z,55.6809
2023-03-29T13:03:42.521Z,55.9235
2023-03-29T13:04:43.352Z,56.8638
2023-03-29T13:05:44.210Z,56.2140
2023-03-29T13:09:47.160Z,55.5415
2023-03-29T13:10:47.994Z,54.2245
2023-03-29T13:11:48.818Z,53.0354
2023-03-29T13:12:49.662Z,55.1835
2023-03-29T13:13:50.476Z,54.9899
2023-03-29T13:14:51.228Z,54.9896
2023-03-29T13:15:52.085Z,52.1614
2023-03-29T13:16:52.861Z,50.9765
2023-03-29T13:17:53.783Z,53.2034
2023-03-29T13:18:54.553Z,53.6898
2023-03-29T13:19:55.386Z,52.9996
2023-03-29T13:20:56.150Z,52.1501
2023-03-29T13:21:56.959Z,52.8062
2023-03-29T13:22:57.773Z,51.4397
2023-03-29T13:23:58.569Z,51.9072
2023-03-29T13:24:59.385Z,52.7509
2023-03-29T13:26:00.681Z,53.0916
2023-03-29T13:27:01.535Z,53.2471
2023-03-29T13:28:02.337Z,52.1037
2023-03-29T13:29:03.168Z,53.3230
2023-03-29T13:30:03.969Z,54.9420
2023-03-29T13:31:04.754Z,54.9052
2023-03-29T13:32:05.529Z,55.5775
2023-03-29T13:33:06.443Z,55.5558
2023-03-29T13:34:07.283Z,56.2711
2023-03-29T13:35:08.052Z,56.2768
2023-03-29T13:36:09.035Z,55.9267
2023-03-29T13:37:09.782Z,56.4475
2023-03-29T13:38:10.606Z,55.1515
2023-03-29T13:39:11.367Z,53.1584
2023-03-29T13:40:12.172Z,55.4337
2023-03-29T13:47:17.694Z,55.8664
2023-03-29T13:48:18.523Z,54.8477
2023-03-29T13:49:19.331Z,54.6114
2023-03-29T13:50:20.112Z,54.7643
2023-03-29T13:51:20.920Z,52.2329
2023-03-29T13:52:21.681Z,52.2827
2023-03-29T13:53:22.521Z,53.1868
2023-03-29T13:54:23.311Z,52.7826
2023-03-29T13:55:24.110Z,52.3267
2023-03-29T13:56:24.932Z,51.0076